| time (UTC) | temp F | wind direction | speed MPH | gust MPH | rain 1hr in | rain 24hr in | rain mn in | humidity % | barometer mb |
| 20260509040048 | 91 | 131 | 0.0 | 6.0 | 0.00 | 0.02 | 0.02 | 15 | 1005.0 |
| 20260509034552 | 91 | 231 | 1.0 | 5.0 | 0.00 | 0.02 | 0.02 | 14 | 1004.8 |
| 20260509033052 | 91 | 253 | 2.0 | 6.0 | 0.00 | 0.02 | 0.02 | 14 | 1004.6 |
| 20260509031546 | 91 | 207 | 0.0 | 2.0 | 0.00 | 0.02 | 0.02 | 14 | 1004.5 |
| 20260509030046 | 93 | 187 | 0.0 | 3.0 | 0.00 | 0.02 | 0.02 | 13 | 1004.3 |
| 20260509024545 | 94 | 216 | 0.0 | 7.0 | 0.00 | 0.02 | 0.02 | 12 | 1004.2 |
| 20260509023045 | 95 | 252 | 1.0 | 6.0 | 0.00 | 0.02 | 0.02 | 12 | 1004.1 |
| 20260509021545 | 96 | 278 | 2.0 | 9.0 | 0.00 | 0.02 | 0.02 | 11 | 1003.9 |
| 20260509020044 | 97 | 255 | 2.0 | 6.0 | 0.00 | 0.02 | 0.02 | 11 | 1003.9 |
| 20260509014543 | 98 | 243 | 3.0 | 7.0 | 0.00 | 0.02 | 0.02 | 10 | 1003.8 |
| 20260509013052 | 98 | 256 | 4.0 | 10.0 | 0.00 | 0.02 | 0.02 | 10 | 1003.7 |
| 20260509011542 | 98 | 257 | 4.0 | 13.0 | 0.00 | 0.02 | 0.02 | 10 | 1003.8 |
| 20260509010040 | 99 | 257 | 4.0 | 9.0 | 0.00 | 0.02 | 0.02 | 11 | 1003.9 |
| 20260509004541 | 99 | 245 | 4.0 | 9.0 | 0.00 | 0.02 | 0.02 | 11 | 1004.1 |
| 20260509003037 | 99 | 325 | 3.0 | 9.0 | 0.00 | 0.02 | 0.02 | 11 | 1004.2 |
| 20260509001543 | 99 | 228 | 3.0 | 10.0 | 0.00 | 0.02 | 0.02 | 10 | 1004.3 |
| 20260509000037 | 99 | 311 | 2.0 | 10.0 | 0.00 | 0.02 | 0.02 | 10 | 1004.4 |
| 20260508234532 | 99 | 293 | 6.0 | 11.0 | 0.00 | 0.02 | 0.02 | 10 | 1004.5 |
| 20260508233031 | 99 | 241 | 4.0 | 13.0 | 0.00 | 0.02 | 0.02 | 9 | 1004.7 |
| 20260508231530 | 99 | 148 | 6.0 | 14.0 | 0.02 | 0.02 | 0.02 | 10 | 1004.8 |
| 20260508230031 | 99 | 292 | 4.0 | 14.0 | 0.02 | 0.02 | 0.02 | 10 | 1004.8 |
| 20260508224534 | 99 | 23 | 8.0 | 16.0 | 0.02 | 0.02 | 0.02 | 11 | 1004.9 |
| 20260508223041 | 99 | 291 | 7.0 | 28.0 | 0.02 | 0.02 | 0.02 | 11 | 1005.1 |
| 20260508221523 | 98 | 221 | 4.0 | 11.0 | 0.00 | 0.00 | 0.00 | 11 | 1005.4 |
| 20260508220026 | 98 | 240 | 2.0 | 10.0 | 0.00 | 0.00 | 0.00 | 12 | 1005.7 |
| 20260508214529 | 98 | 250 | 3.0 | 11.0 | 0.00 | 0.00 | 0.00 | 12 | 1006.1 |
| 20260508213018 | 98 | 233 | 2.0 | 10.0 | 0.00 | 0.00 | 0.00 | 13 | 1006.3 |
| 20260508211513 | 98 | 334 | 2.0 | 8.0 | 0.00 | 0.00 | 0.00 | 13 | 1006.7 |
| 20260508210011 | 96 | 276 | 1.0 | 8.0 | 0.00 | 0.00 | 0.00 | 14 | 1006.9 |
| 20260508204508 | 97 | 352 | 0.0 | 5.0 | 0.00 | 0.00 | 0.00 | 13 | 1007.2 |
| 20260508203013 | 97 | 293 | 3.0 | 8.0 | 0.00 | 0.00 | 0.00 | 13 | 1007.3 |
| 20260508201509 | 96 | 249 | 1.0 | 9.0 | 0.00 | 0.00 | 0.00 | 14 | 1007.6 |
| 20260508200002 | 97 | 221 | 0.0 | 5.0 | 0.00 | 0.00 | 0.00 | 13 | 1007.9 |
| 20260508194559 | 96 | 319 | 1.0 | 4.0 | 0.00 | 0.00 | 0.00 | 14 | 1008.1 |
| 20260508193113 | 94 | 307 | 0.0 | 6.0 | 0.00 | 0.00 | 0.00 | 14 | 1008.3 |
| 20260508191600 | 95 | 249 | 1.0 | 5.0 | 0.00 | 0.00 | 0.00 | 14 | 1008.6 |
| 20260508190107 | 94 | 250 | 0.0 | 5.0 | 0.00 | 0.00 | 0.00 | 14 | 1008.8 |
| 20260508184558 | 94 | 60 | 0.0 | 7.0 | 0.00 | 0.00 | 0.00 | 14 | 1009.0 |
| 20260508183109 | 91 | 4 | 0.0 | 4.0 | 0.00 | 0.00 | 0.00 | 16 | 1009.2 |
| 20260508181552 | 92 | 249 | 1.0 | 5.0 | 0.00 | 0.00 | 0.00 | 15 | 1009.4 |
| 20260508180058 | 92 | 95 | 0.0 | 3.0 | 0.00 | 0.00 | 0.00 | 16 | 1009.6 |
| 20260508174600 | 90 | 219 | 1.0 | 4.0 | 0.00 | 0.00 | 0.00 | 17 | 1009.8 |
| 20260508173040 | 89 | 98 | 0.0 | 5.0 | 0.00 | 0.00 | 0.00 | 18 | 1009.9 |
| 20260508171539 | 87 | 44 | 1.0 | 6.0 | 0.00 | 0.00 | 0.00 | 19 | 1010.1 |
| 20260508170038 | 87 | 142 | 1.0 | 4.0 | 0.00 | 0.00 | 0.00 | 19 | 1010.1 |
| 20260508164542 | 85 | 219 | 0.0 | 5.0 | 0.00 | 0.00 | 0.00 | 20 | 1010.3 |
| 20260508163033 | 85 | 140 | 0.0 | 6.0 | 0.00 | 0.00 | 0.00 | 20 | 1010.3 |
| 20260508161528 | 84 | 120 | 0.0 | 5.0 | 0.00 | 0.00 | 0.00 | 22 | 1010.2 |
| 20260508160028 | 83 | 184 | 0.0 | 5.0 | 0.00 | 0.00 | 0.00 | 22 | 1010.3 |
| 20260508154526 | 82 | 131 | 1.0 | 4.0 | 0.00 | 0.00 | 0.00 | 22 | 1010.1 |
| 20260508153031 | 80 | 115 | 2.0 | 5.0 | 0.00 | 0.00 | 0.00 | 24 | 1010.2 |
| 20260508151521 | 80 | 117 | 2.0 | 4.0 | 0.00 | 0.00 | 0.00 | 24 | 1010.3 |
| 20260508150018 | 79 | 142 | 0.0 | 2.0 | 0.00 | 0.00 | 0.00 | 25 | 1010.4 |
| 20260508144525 | 78 | 187 | 0.0 | 4.0 | 0.00 | 0.00 | 0.00 | 27 | 1010.5 |
| 20260508143011 | 76 | 112 | 1.0 | 4.0 | 0.00 | 0.00 | 0.00 | 28 | 1010.4 |
| 20260508141512 | 75 | 127 | 0.0 | 4.0 | 0.00 | 0.00 | 0.00 | 29 | 1010.3 |
| 20260508140019 | 73 | 98 | 2.0 | 5.0 | 0.00 | 0.00 | 0.00 | 29 | 1010.2 |
| 20260508134506 | 73 | 72 | 0.0 | 3.0 | 0.00 | 0.00 | 0.00 | 30 | 1009.9 |
| 20260508133103 | 72 | 94 | 0.0 | 3.0 | 0.00 | 0.00 | 0.00 | 31 | 1009.7 |
| 20260508131502 | 70 | 129 | 2.0 | 5.0 | 0.00 | 0.00 | 0.00 | 32 | 1009.5 |
| 20260508130059 | 69 | 116 | 0.0 | 4.0 | 0.00 | 0.00 | 0.00 | 32 | 1009.3 |
| 20260508124557 | 69 | 117 | 2.0 | 7.0 | 0.00 | 0.00 | 0.00 | 33 | 1009.1 |
| 20260508123113 | 69 | 90 | 1.0 | 6.0 | 0.00 | 0.00 | 0.00 | 34 | 1008.9 |
| 20260508121604 | 69 | 66 | 0.0 | 4.0 | 0.00 | 0.00 | 0.00 | 34 | 1008.8 |
| 20260508120155 | 69 | 112 | 0.0 | 5.0 | 0.00 | 0.00 | 0.00 | 33 | 1008.7 |
| 20260508114600 | 69 | 142 | 1.0 | 5.0 | 0.00 | 0.00 | 0.00 | 33 | 1008.7 |
| 20260508113106 | 69 | 126 | 0.0 | 3.0 | 0.00 | 0.00 | 0.00 | 33 | 1008.6 |
| 20260508111551 | 69 | 122 | 0.0 | 3.0 | 0.00 | 0.00 | 0.00 | 33 | 1008.6 |
| 20260508110105 | 69 | 60 | 0.0 | 3.0 | 0.00 | 0.00 | 0.00 | 32 | 1008.6 |
| 20260508104549 | 69 | 56 | 0.0 | 3.0 | 0.00 | 0.00 | 0.00 | 33 | 1008.6 |
| 20260508103058 | 69 | 135 | 0.0 | 3.0 | 0.00 | 0.00 | 0.00 | 33 | 1008.4 |
| 20260508101552 | 69 | 78 | 0.0 | 1.0 | 0.00 | 0.00 | 0.00 | 33 | 1008.4 |
| 20260508100045 | 70 | 84 | 1.0 | 4.0 | 0.00 | 0.00 | 0.00 | 32 | 1008.2 |
| 20260508094541 | 70 | 183 | 2.0 | 5.0 | 0.00 | 0.00 | 0.00 | 30 | 1008.1 |
| 20260508093041 | 71 | 116 | 1.0 | 7.0 | 0.00 | 0.00 | 0.00 | 28 | 1008.2 |
| 20260508091537 | 71 | 72 | 0.0 | 2.0 | 0.00 | 0.00 | 0.00 | 25 | 1008.1 |
| 20260508090035 | 71 | 70 | 0.0 | 6.0 | 0.00 | 0.00 | 0.00 | 22 | 1008.3 |
| 20260508084532 | 72 | 273 | 1.0 | 4.0 | 0.00 | 0.00 | 0.00 | 21 | 1008.3 |
| 20260508083032 | 73 | 126 | 0.0 | 3.0 | 0.00 | 0.00 | 0.00 | 22 | 1008.4 |
| 20260508081527 | 75 | 102 | 0.0 | 3.0 | 0.00 | 0.00 | 0.00 | 21 | 1008.3 |
| 20260508080026 | 74 | 117 | 0.0 | 1.0 | 0.00 | 0.00 | 0.00 | 21 | 1008.3 |
| 20260508074523 | 75 | 103 | 0.0 | 2.0 | 0.00 | 0.00 | 0.00 | 21 | 1008.3 |
| 20260508073030 | 76 | 131 | 1.0 | 5.0 | 0.00 | 0.00 | 0.00 | 20 | 1008.3 |
| 20260508071522 | 75 | 138 | 3.0 | 10.0 | 0.00 | 0.00 | 0.00 | 22 | 1008.3 |
| 20260508070020 | 75 | 131 | 0.0 | 1.0 | 0.00 | 0.00 | 0.00 | 22 | 1007.9 |
| 20260508064525 | 76 | 41 | 0.0 | 1.0 | 0.00 | 0.00 | 0.00 | 22 | 1008.0 |
| 20260508063017 | 76 | 49 | 0.0 | 1.0 | 0.00 | 0.00 | 0.00 | 22 | 1008.1 |
| 20260508061515 | 76 | 205 | 0.0 | 0.0 | 0.00 | 0.00 | 0.00 | 19 | 1008.1 |
| 20260508060015 | 76 | 205 | 0.0 | 1.0 | 0.00 | 0.00 | 0.00 | 18 | 1008.1 |
| 20260508054514 | 77 | 200 | 0.0 | 1.0 | 0.00 | 0.00 | 0.00 | 18 | 1008.1 |
| 20260508053013 | 78 | 205 | 0.0 | 1.0 | 0.00 | 0.00 | 0.00 | 18 | 1007.9 |
| 20260508051514 | 78 | 203 | 0.0 | 1.0 | 0.00 | 0.00 | 0.00 | 18 | 1007.8 |
| 20260508050015 | 78 | 210 | 0.0 | 1.0 | 0.00 | 0.00 | 0.00 | 17 | 1007.8 |
| 20260508044511 | 79 | 218 | 0.0 | 0.0 | 0.00 | 0.00 | 0.00 | 18 | 1007.7 |
| 20260508043010 | 80 | 218 | 0.0 | 1.0 | 0.00 | 0.00 | 0.00 | 16 | 1007.5 |
| 20260508041510 | 82 | 218 | 0.0 | 0.0 | 0.00 | 0.00 | 0.00 | 14 | 1007.3 |